Meath Environmental Platform

Observations

Time Sensor AQI SAQ Temp °C Hum % Pres Pa CO μg/m³ H₂S μg/m³ NO μg/m³ NO₂ μg/m³ O₃ μg/m³ SO₂ μg/m³ CO₂e PPM VOC PPM PM1 μg/m³ PM2.5 μg/m³ PM4 μg/m³ PM10 μg/m³ TPS µm
Tuesday 11 August 2026
18:10 Trim Patrick St 3 37.9 21 69,715 0 21.94 0.2 19.36 129.78 27.69 2.86 9.9 10.89
18:09 Trim Market St 3 32.8 23 66,439 0 22.89 0.41 24.37 59.24 1.39 3.56 8.56 11.14
18:09 Trim Patrick St 3 38 21 69,715 0 17.13 0.15 14.87 148.98 29.57 2 9.09 10
18:08 Trim Market St 3 32.9 23 66,445 0 26.84 0.41 36.34 63.21 1.69 1.43 5.25 5.78
18:08 Trim Patrick St 3 38.1 20 69,719 0 2.78 0.14 15.01 78.03 27.23 2.86 10.77 11.85
18:07 Trim Market St 3 32.9 23 66,445 0 21.7 0.4 32.11 52.8 1.32 2.14 5.26 5.79
18:07 Trim Patrick St 3 38.2 20 69,752 0 0.65 0.11 15.05 76.57 26.36 3.71 10.76 11.83
18:06 Trim Market St 3 33 23 66,451 0 27.35 0.44 42.88 56.48 1.49 1.43 5.26 5.79
18:06 Trim Patrick St 3 38.3 21 69,768 0 7.17 0.09 14.7 96.85 27.5 2.86 9.91 10.9
18:05 Trim Patrick St 3 38.3 20 69,756 0 5.06 0.1 14.54 138.35 30.01 2 8.27 9.1
18:04 Trim Patrick St 3 38.4 20 69,764 0 0 0.11 14.85 86.61 28.18 2.86 9.93 10.93
18:03 Trim Market St 3 33.2 23 66,459 0 30.03 0.98 66.2 45.57 0.66 0 4.18 4.6
18:03 Trim Patrick St 3 38.5 20 69,787 0 0 0.06 14.85 94.51 27.03 2.86 9.11 10.02
18:02 Trim Patrick St 3 38.6 20 69,810 0 0 0 14.74 82.4 26.4 2 9.93 10.92
18:00 Trim Market St 3 33.5 22 66,491 0 24.22 0.77 39.97 48.87 0.94 0 4.75 5.22
18:00 Trim Patrick St 3 38.7 20 69,836 0 0.39 0 14.83 136.92 28.62 2.86 9.95 10.95
17:59 Trim Market St 3 33.6 22 66,503 0 30.22 0.71 77.64 40.35 1.03 0.71 4.2 4.62
17:59 Trim Patrick St 3 38.8 20 69,810 0 0 0 14.89 80.79 26.83 2 9.15 10.06
17:57 Trim Patrick St 3 38.9 20 69,826 0 0 0 14.9 137.44 29.45 2 9.16 10.07
17:56 Trim Market St 3 33.9 22 66,515 0 19.64 0.39 27.35 54.83 2.22 0 4.21 4.63